Time;durP1;ratioP1;P1;durP2;ratioP2;P2;SDS_P1;SDS_P2;PMS_P1;PMS_P2;Temp;Humidity;BMP_temperature;BMP_pressure;BME280_temperature;BME280_humidity;BME280_pressure;Samples;Min_cycle;Max_cycle;Signal;HPM_P1;HPM_P2
2021/07/05 00:02:02;;;;;;;4.00;2.78;;;15.70;99.90;;;;;;6639282;89;20574;-82
2021/07/05 00:12:05;;;;;;;5.80;2.90;;;15.80;99.90;;;;;;6627988;89;20182;-82
2021/07/05 00:22:06;;;;;;;4.00;2.80;;;15.60;99.90;;;;;;6594708;89;20766;-81
2021/07/05 00:32:07;;;;;;;4.37;2.95;;;15.60;99.90;;;;;;6621193;89;20891;-82
2021/07/05 00:42:08;;;;;;;10.23;3.90;;;15.60;99.90;;;;;;6578213;89;20350;-83
2021/07/05 00:52:08;;;;;;;6.78;3.90;;;15.60;99.90;;;;;;6582503;89;20180;-82
2021/07/05 01:02:09;;;;;;;7.97;3.53;;;15.60;99.90;;;;;;6610259;88;20244;-83
2021/07/05 01:12:10;;;;;;;6.55;3.20;;;15.70;99.90;;;;;;6619793;89;20246;-80
2021/07/05 01:22:12;;;;;;;3.72;2.80;;;15.70;99.90;;;;;;6626883;89;20181;-80
2021/07/05 01:32:13;;;;;;;9.15;3.60;;;15.80;99.90;;;;;;6627351;89;20219;-81
2021/07/05 01:42:14;;;;;;;5.35;3.35;;;15.70;99.90;;;;;;6655190;89;20853;-81
2021/07/05 01:52:15;;;;;;;4.78;2.70;;;15.70;99.90;;;;;;6626300;88;20195;-80
2021/07/05 02:02:16;;;;;;;7.40;2.30;;;15.80;99.90;;;;;;6627486;88;20178;-81
2021/07/05 02:12:16;;;;;;;4.00;2.40;;;16.00;99.90;;;;;;6627066;88;20252;-82
2021/07/05 02:22:17;;;;;;;4.25;2.40;;;15.90;99.90;;;;;;6654462;88;20227;-80
2021/07/05 02:32:18;;;;;;;4.97;2.85;;;15.90;99.90;;;;;;6662817;89;20184;-79
2021/07/05 02:42:19;;;;;;;4.15;2.95;;;16.00;99.90;;;;;;6662673;89;20183;-81
2021/07/05 02:52:19;;;;;;;6.20;2.70;;;16.00;99.90;;;;;;6662408;89;20203;-81
2021/07/05 03:02:20;;;;;;;6.22;2.50;;;16.00;99.90;;;;;;6714263;88;20187;-80
2021/07/05 03:12:21;;;;;;;6.57;3.12;;;16.20;99.90;;;;;;6698741;88;20213;-80
2021/07/05 03:22:21;;;;;;;5.90;2.60;;;16.10;99.90;;;;;;6698494;88;20888;-81
2021/07/05 03:32:22;;;;;;;6.93;2.65;;;16.00;99.90;;;;;;6640103;88;21178;-82
2021/07/05 03:42:23;;;;;;;7.75;2.97;;;16.10;99.90;;;;;;6616213;88;20171;-83
2021/07/05 03:52:24;;;;;;;6.03;2.40;;;16.20;99.90;;;;;;6612589;88;20182;-82
2021/07/05 04:02:25;;;;;;;4.22;2.30;;;16.20;99.90;;;;;;6638753;89;20162;-82
2021/07/05 04:12:25;;;;;;;7.60;2.60;;;16.30;99.90;;;;;;6645725;89;20191;-82
2021/07/05 04:22:26;;;;;;;5.50;2.80;;;16.40;99.90;;;;;;6698472;89;20181;-82
2021/07/05 04:32:26;;;;;;;5.50;2.40;;;16.30;99.90;;;;;;6698148;88;20853;-84
2021/07/05 04:42:27;;;;;;;6.13;2.37;;;16.00;99.90;;;;;;6697933;89;20559;-81
2021/07/05 04:52:27;;;;;;;6.07;1.30;;;15.80;99.90;;;;;;6656111;89;20528;-81
2021/07/05 05:02:28;;;;;;;1.45;0.77;;;15.70;99.90;;;;;;6644626;89;20277;-79
2021/07/05 05:12:29;;;;;;;2.00;1.00;;;15.60;99.90;;;;;;6628067;89;20282;-80
2021/07/05 05:22:29;;;;;;;3.10;1.10;;;15.60;99.90;;;;;;6660942;89;20200;-81
2021/07/05 05:32:30;;;;;;;1.50;0.80;;;15.50;99.90;;;;;;6659653;88;20514;-82
2021/07/05 05:42:31;;;;;;;3.22;1.80;;;15.70;99.90;;;;;;6663127;89;20617;-82
2021/07/05 05:52:31;;;;;;;2.97;1.00;;;15.80;99.90;;;;;;6663413;89;20871;-81
2021/07/05 06:02:32;;;;;;;1.67;1.10;;;16.20;99.90;;;;;;6663231;89;20165;-81
2021/07/05 06:12:33;;;;;;;2.33;0.83;;;16.20;99.90;;;;;;6661495;89;20745;-81
2021/07/05 06:22:41;;;;;;;5.43;1.20;;;16.30;99.90;;;;;;6660560;89;20520;-82
2021/07/05 06:32:43;;;;;;;3.40;1.50;;;16.50;99.90;;;;;;6661768;88;20282;-82
2021/07/05 06:42:43;;;;;;;2.37;0.80;;;16.90;99.90;;;;;;6662311;89;20205;-81
2021/07/05 06:52:44;;;;;;;3.35;1.00;;;17.20;99.90;;;;;;6657121;89;20246;-81
2021/07/05 07:02:45;;;;;;;1.40;0.80;;;17.40;99.90;;;;;;6657469;89;20267;-81
2021/07/05 07:12:48;;;;;;;2.05;0.75;;;17.30;99.90;;;;;;6661949;89;20157;-82
2021/07/05 07:22:48;;;;;;;4.43;1.00;;;17.30;99.90;;;;;;6657587;89;20188;-82
2021/07/05 07:32:49;;;;;;;3.57;1.00;;;17.60;99.90;;;;;;6660094;89;20173;-81
2021/07/05 07:42:50;;;;;;;6.20;2.12;;;17.90;99.90;;;;;;6660732;89;20179;-81
2021/07/05 07:52:55;;;;;;;3.53;1.27;;;18.30;99.90;;;;;;6663511;89;20247;-82
2021/07/05 08:02:56;;;;;;;1.83;0.68;;;18.90;99.90;;;;;;6663646;89;20177;-81
2021/07/05 08:12:57;;;;;;;5.53;1.05;;;18.90;99.90;;;;;;6663074;89;20683;-79
2021/07/05 08:22:59;;;;;;;2.08;0.80;;;19.00;99.90;;;;;;6661643;89;20157;-78
2021/07/05 08:32:59;;;;;;;1.48;0.75;;;19.50;99.90;;;;;;6660989;89;20180;-79
2021/07/05 08:43:00;;;;;;;1.40;0.52;;;19.70;99.90;;;;;;6659190;89;20196;-80
2021/07/05 08:53:01;;;;;;;2.08;0.57;;;20.00;99.90;;;;;;6657231;89;20198;-80
2021/07/05 09:03:02;;;;;;;2.37;0.77;;;19.90;99.90;;;;;;6662250;89;20196;-81
2021/07/05 09:13:05;;;;;;;1.87;0.70;;;19.70;99.90;;;;;;6662860;89;20190;-84
2021/07/05 09:23:13;;;;;;;1.70;0.70;;;20.60;99.90;;;;;;6664143;88;20169;-83
2021/07/05 09:33:18;;;;;;;1.80;0.62;;;20.40;99.90;;;;;;6664033;89;20179;-81
2021/07/05 09:43:25;;;;;;;3.22;0.65;;;21.10;99.90;;;;;;6662661;89;20197;-81
2021/07/05 09:53:33;;;;;;;1.33;0.70;;;21.20;99.90;;;;;;6645393;88;20188;-80
2021/07/05 10:03:36;;;;;;;2.12;0.88;;;21.00;99.90;;;;;;6645223;88;20177;-80
2021/07/05 10:13:37;;;;;;;1.87;0.80;;;21.40;99.90;;;;;;6645440;89;20181;-84
2021/07/05 10:34:22;;;;;;;1.33;0.77;;;21.00;99.90;;;;;;6765421;77;20203;-83
2021/07/05 10:55:42;;;;;;;2.60;0.88;;;21.10;99.90;;;;;;6663515;89;21120;-83
2021/07/05 11:27:37;;;;;;;1.35;0.70;;;21.50;99.90;;;;;;6700999;78;20177;-84
2021/07/05 13:40:52;;;;;;;4.90;1.10;;;21.10;99.90;;;;;;6665019;88;20211;-86
2021/07/05 14:12:39;;;;;;;4.22;0.82;;;20.80;99.90;;;;;;6683681;77;20237;-86
2021/07/05 14:32:51;;;;;;;2.22;1.17;;;21.00;99.90;;;;;;6647808;88;20211;-84
2021/07/05 14:42:54;;;;;;;2.87;1.20;;;21.10;99.90;;;;;;6663216;88;21385;-82
2021/07/05 14:52:56;;;;;;;2.20;1.30;;;20.90;99.90;;;;;;6663390;88;20167;-87
2021/07/05 15:14:39;;;;;;;1.40;0.90;;;21.20;99.90;;;;;;6644516;88;20952;-83
2021/07/05 15:35:44;;;;;;;3.08;0.90;;;21.70;99.90;;;;;;6665937;88;20254;-83
2021/07/05 15:57:27;;;;;;;1.25;0.82;;;23.60;99.90;;;;;;6700690;77;20210;-83
2021/07/05 16:07:28;;;;;;;1.62;0.90;;;22.50;99.90;;;;;;6646549;88;20177;-80
2021/07/05 16:17:28;;;;;;;1.55;0.80;;;22.80;99.90;;;;;;6645343;88;20717;-78
2021/07/05 16:38:19;;;;;;;1.75;0.90;;;22.30;99.90;;;;;;6662929;78;20767;-79
2021/07/05 16:48:20;;;;;;;2.95;0.93;;;22.20;99.90;;;;;;6717898;88;20183;-82
2021/07/05 16:58:41;;;;;;;1.45;0.90;;;22.30;99.90;;;;;;6774604;77;20184;-80
2021/07/05 17:08:43;;;;;;;1.50;1.05;;;22.40;99.90;;;;;;6630922;88;20188;-80
2021/07/05 17:18:44;;;;;;;1.35;0.77;;;22.30;99.90;;;;;;6629601;88;20776;-85
2021/07/05 17:28:45;;;;;;;3.03;1.10;;;22.40;99.90;;;;;;6692320;88;20240;-78
2021/07/05 17:38:45;;;;;;;2.17;1.00;;;22.40;99.90;;;;;;6680035;88;20226;-81
2021/07/05 17:48:46;;;;;;;3.03;1.35;;;22.00;99.90;;;;;;6680269;88;21209;-78
2021/07/05 17:58:47;;;;;;;1.60;1.05;;;22.00;99.90;;;;;;6613053;88;20194;-80
2021/07/05 18:08:50;;;;;;;1.58;0.90;;;21.70;99.90;;;;;;6626569;88;20217;-81
2021/07/05 18:18:51;;;;;;;2.55;0.90;;;21.70;99.90;;;;;;6632472;88;20179;-84
2021/07/05 18:28:51;;;;;;;1.67;1.00;;;21.60;99.90;;;;;;6645223;89;20194;-81
2021/07/05 18:38:52;;;;;;;1.90;0.90;;;21.40;99.90;;;;;;6658894;88;20170;-82
2021/07/05 18:48:52;;;;;;;2.92;0.85;;;21.10;99.90;;;;;;6645069;89;20189;-81
2021/07/05 18:58:53;;;;;;;1.52;0.90;;;20.80;99.90;;;;;;6712715;88;20276;-79
2021/07/05 19:08:54;;;;;;;2.28;1.05;;;20.70;99.90;;;;;;6712792;88;21049;-80
2021/07/05 19:18:54;;;;;;;1.80;1.02;;;20.80;99.90;;;;;;6715399;88;20166;-78
2021/07/05 19:28:55;;;;;;;2.03;1.17;;;20.60;99.90;;;;;;6647124;89;20183;-83
2021/07/05 19:38:55;;;;;;;1.95;1.00;;;20.40;99.90;;;;;;6623915;88;20198;-82
2021/07/05 19:48:56;;;;;;;5.22;2.22;;;20.30;99.90;;;;;;6631697;89;20676;-81
2021/07/05 19:58:57;;;;;;;5.20;2.17;;;20.20;99.90;;;;;;6657436;88;20197;-80
2021/07/05 20:08:57;;;;;;;4.17;1.20;;;20.00;99.90;;;;;;6654047;88;20158;-80
2021/07/05 20:18:58;;;;;;;5.43;1.40;;;20.00;99.90;;;;;;6639689;89;20607;-82
2021/07/05 20:28:58;;;;;;;3.12;1.20;;;20.00;99.90;;;;;;6631157;89;20905;-81
2021/07/05 20:38:59;;;;;;;3.75;2.00;;;19.40;99.90;;;;;;6646576;89;20315;-81
2021/07/05 20:48:59;;;;;;;2.33;1.40;;;19.10;99.90;;;;;;6662986;88;20265;-79
2021/07/05 20:59:00;;;;;;;1.83;1.40;;;18.90;99.90;;;;;;6631099;89;20282;-82
2021/07/05 21:09:01;;;;;;;2.97;1.60;;;18.80;99.90;;;;;;6642252;88;20188;-80
2021/07/05 21:19:02;;;;;;;2.22;1.50;;;18.80;99.90;;;;;;6634863;89;21246;-80
2021/07/05 21:29:03;;;;;;;5.15;1.70;;;18.90;99.90;;;;;;6702717;88;20383;-81
2021/07/05 21:39:04;;;;;;;3.00;1.90;;;18.90;99.90;;;;;;6678335;89;20277;-80
2021/07/05 21:49:04;;;;;;;2.53;1.70;;;18.60;99.90;;;;;;6681064;89;20230;-80
2021/07/05 21:59:05;;;;;;;2.70;1.90;;;18.80;99.90;;;;;;6638877;89;20206;-82
2021/07/05 22:09:05;;;;;;;2.53;1.67;;;18.80;99.90;;;;;;6636255;89;20204;-79
2021/07/05 22:19:06;;;;;;;1.98;1.65;;;18.70;99.90;;;;;;6638195;89;20193;-81
2021/07/05 22:29:07;;;;;;;2.87;1.50;;;18.80;99.90;;;;;;6652377;88;20280;-83
2021/07/05 22:39:07;;;;;;;3.30;1.70;;;18.80;99.90;;;;;;6641616;88;20169;-82
2021/07/05 22:49:08;;;;;;;4.05;1.80;;;18.80;99.90;;;;;;6656383;88;20227;-82
2021/07/05 22:59:08;;;;;;;3.10;1.40;;;18.80;99.90;;;;;;6654158;89;20198;-82
2021/07/05 23:09:09;;;;;;;3.83;1.50;;;18.90;99.90;;;;;;6640589;89;20192;-81
2021/07/05 23:19:09;;;;;;;3.43;1.60;;;18.90;99.90;;;;;;6656591;89;20541;-83
2021/07/05 23:29:10;;;;;;;3.15;1.80;;;18.90;99.90;;;;;;6644406;89;20299;-82
2021/07/05 23:39:10;;;;;;;4.03;1.55;;;19.00;99.90;;;;;;6646178;88;20196;-81
2021/07/05 23:49:11;;;;;;;3.97;1.77;;;18.90;99.90;;;;;;6644544;89;20268;-83
2021/07/05 23:59:11;;;;;;;3.42;1.27;;;19.00;99.90;;;;;;6644887;89;20221;-82
